Time;durP1;ratioP1;P1;durP2;ratioP2;P2;SDS_P1;SDS_P2;PMS_P1;PMS_P2;Temp;Humidity;BMP_temperature;BMP_pressure;BME280_temperature;BME280_humidity;BME280_pressure;Samples;Min_cycle;Max_cycle;Signal;HPM_P1;HPM_P2
2024/01/25 00:00:29;;;;;;;0.70;0.70;;;;;;;3.96;81.16;95385.53;5013229;28;20653;-69
2024/01/25 00:02:54;;;;;;;0.80;0.80;;;;;;;4.06;80.51;95383.63;5013120;28;20682;-69
2024/01/25 00:05:19;;;;;;;6.03;4.17;;;;;;;4.13;78.76;95365.56;5013174;28;20538;-68
2024/01/25 00:07:49;;;;;;;0.50;0.50;;;;;;;4.15;78.21;95345.38;5013159;28;20540;-68
2024/01/25 00:10:16;;;;;;;0.40;0.40;;;;;;;4.29;77.34;95354.34;5013286;28;20176;-68
2024/01/25 00:12:42;;;;;;;1.13;1.13;;;;;;;4.32;76.64;95354.03;5013033;28;20176;-68
2024/01/25 00:15:09;;;;;;;0.73;0.73;;;;;;;4.28;76.66;95343.09;5013217;28;20169;-68
2024/01/25 00:17:34;;;;;;;1.43;1.33;;;;;;;4.24;76.16;95326.16;5013076;28;20267;-68
2024/01/25 00:20:00;;;;;;;0.40;0.40;;;;;;;4.31;76.58;95311.53;4995405;28;20326;-69
2024/01/25 00:22:26;;;;;;;0.50;0.50;;;;;;;4.27;76.86;95297.19;5013020;28;20196;-69
2024/01/25 00:24:51;;;;;;;3.30;2.97;;;;;;;4.19;77.63;95278.94;5013007;28;20176;-69
2024/01/25 00:27:16;;;;;;;0.50;0.50;;;;;;;4.28;77.35;95275.38;5012809;28;20187;-69
2024/01/25 00:29:42;;;;;;;0.40;0.40;;;;;;;4.17;77.95;95266.06;5012781;28;20180;-69
2024/01/25 00:32:08;;;;;;;0.40;0.40;;;;;;;4.03;78.02;95256.28;5012923;28;20171;-68
2024/01/25 00:34:33;;;;;;;0.83;0.83;;;;;;;4.25;78.37;95286.09;5012896;28;20172;-69
2024/01/25 00:36:59;;;;;;;1.07;1.07;;;;;;;4.30;78.39;95293.44;5012813;28;20227;-69
2024/01/25 00:39:25;;;;;;;0.50;0.50;;;;;;;4.28;78.59;95293.59;4995385;28;20849;-69
2024/01/25 00:41:51;;;;;;;0.40;0.40;;;;;;;4.30;77.91;95280.41;5012340;28;20204;-69
2024/01/25 00:44:17;;;;;;;0.40;0.40;;;;;;;4.46;76.89;95301.28;5012405;28;20175;-70
2024/01/25 00:46:46;;;;;;;0.40;0.40;;;;;;;4.49;76.81;95295.75;5012472;28;20172;-69
2024/01/25 00:49:12;;;;;;;0.40;0.40;;;;;;;4.53;76.43;95276.19;5012357;28;20176;-69
2024/01/25 00:51:43;;;;;;;0.50;0.50;;;;;;;4.40;76.71;95262.84;5012081;28;20530;-69
2024/01/25 00:54:08;;;;;;;0.40;0.40;;;;;;;4.47;76.92;95282.06;5012273;28;20183;-69
2024/01/25 00:56:34;;;;;;;0.50;0.50;;;;;;;4.36;77.70;95279.75;5012772;28;20173;-69
2024/01/25 00:59:00;;;;;;;4.30;3.90;;;;;;;4.39;77.59;95282.06;5012181;28;20180;-69
2024/01/25 01:01:26;;;;;;;0.40;0.40;;;;;;;4.33;77.25;95254.03;5012078;28;20295;-69
2024/01/25 01:03:55;;;;;;;0.40;0.40;;;;;;;4.54;76.75;95290.84;5012219;28;20173;-69
2024/01/25 01:06:21;;;;;;;0.40;0.40;;;;;;;4.40;76.94;95274.09;5011947;28;20260;-69
2024/01/25 01:08:47;;;;;;;1.33;1.20;;;;;;;4.42;76.97;95290.34;5012076;28;20176;-69
2024/01/25 01:11:12;;;;;;;0.40;0.40;;;;;;;4.37;76.23;95287.44;5011957;28;20177;-69
2024/01/25 01:13:38;;;;;;;1.17;1.17;;;;;;;4.38;76.16;95281.25;5011982;28;20235;-69
2024/01/25 01:16:03;;;;;;;1.13;1.03;;;;;;;4.30;75.81;95275.22;5011881;28;20180;-69
2024/01/25 01:18:29;;;;;;;0.50;0.50;;;;;;;4.13;76.67;95272.59;5011831;28;20168;-69
2024/01/25 01:20:54;;;;;;;0.40;0.40;;;;;;;4.22;76.33;95220.50;5011850;28;20314;-69
2024/01/25 01:23:20;;;;;;;0.50;0.50;;;;;;;4.40;76.33;95232.38;5010589;28;20191;-70
2024/01/25 01:25:45;;;;;;;5.40;1.27;;;;;;;4.38;77.04;95220.50;5011751;28;20172;-70
2024/01/25 01:28:11;;;;;;;0.60;0.60;;;;;;;4.47;77.00;95224.72;5011866;28;20172;-69
2024/01/25 01:30:36;;;;;;;0.57;0.57;;;;;;;4.50;77.80;95219.97;4994170;28;20176;-69
2024/01/25 01:33:02;;;;;;;0.50;0.50;;;;;;;4.36;78.12;95207.63;5011751;28;20211;-69
2024/01/25 01:35:27;;;;;;;0.40;0.40;;;;;;;4.41;77.61;95220.16;5011669;28;20566;-69
2024/01/25 01:37:53;;;;;;;0.40;0.40;;;;;;;4.53;77.47;95211.03;5011740;28;20184;-69
2024/01/25 01:40:18;;;;;;;0.40;0.40;;;;;;;4.56;77.54;95215.91;5011766;28;20275;-69
2024/01/25 01:42:43;;;;;;;0.40;0.40;;;;;;;4.57;77.56;95212.34;5011404;28;20208;-69
2024/01/25 01:45:12;;;;;;;0.40;0.40;;;;;;;4.72;77.25;95210.66;5011457;28;20180;-69
2024/01/25 01:47:38;;;;;;;0.40;0.40;;;;;;;4.79;76.80;95201.19;5011497;28;20175;-69
2024/01/25 01:50:05;;;;;;;0.50;0.50;;;;;;;4.88;76.92;95192.38;5011283;28;20180;-69
2024/01/25 01:52:31;;;;;;;0.40;0.40;;;;;;;4.92;76.52;95198.09;4993990;28;20185;-69
2024/01/25 01:54:57;;;;;;;0.40;0.40;;;;;;;4.93;76.37;95195.28;5011286;28;20177;-69
2024/01/25 01:57:23;;;;;;;0.40;0.40;;;;;;;4.91;76.16;95201.66;5011204;28;20318;-68
2024/01/25 01:59:50;;;;;;;0.40;0.40;;;;;;;5.02;76.12;95192.66;5011252;28;20177;-70
2024/01/25 02:02:15;;;;;;;0.40;0.40;;;;;;;4.89;75.66;95156.69;5010764;28;20204;-70
2024/01/25 02:04:41;;;;;;;0.40;0.40;;;;;;;5.15;75.58;95183.31;5010879;28;20195;-70
2024/01/25 02:07:07;;;;;;;0.40;0.40;;;;;;;5.16;75.31;95164.06;5011051;28;20172;-69
2024/01/25 02:09:34;;;;;;;0.50;0.50;;;;;;;5.29;75.36;95182.59;5011107;28;20176;-70
2024/01/25 02:12:03;;;;;;;0.40;0.40;;;;;;;5.39;74.81;95182.38;5011188;28;20560;-71
2024/01/25 02:14:30;;;;;;;0.40;0.40;;;;;;;5.46;73.08;95185.13;5011098;28;20164;-71
2024/01/25 02:16:56;;;;;;;0.40;0.40;;;;;;;5.38;72.52;95175.53;5010711;28;20196;-71
2024/01/25 02:19:21;;;;;;;0.93;0.93;;;;;;;5.40;73.05;95186.63;5011017;28;20180;-71
2024/01/25 02:21:48;;;;;;;0.40;0.40;;;;;;;5.44;72.27;95195.75;5010699;28;20672;-71
2024/01/25 02:24:14;;;;;;;4.07;3.90;;;;;;;5.41;72.44;95190.06;5010868;28;20531;-71
2024/01/25 02:26:39;;;;;;;0.40;0.40;;;;;;;5.44;72.87;95195.75;5011034;28;20226;-71
2024/01/25 02:29:07;;;;;;;0.40;0.40;;;;;;;5.36;73.88;95190.59;4993327;28;20243;-70
2024/01/25 02:31:32;;;;;;;0.30;0.30;;;;;;;5.30;73.62;95188.63;5010926;28;20180;-71
2024/01/25 02:33:59;;;;;;;0.40;0.40;;;;;;;5.21;74.01;95187.03;5010587;28;20210;-71
2024/01/25 02:36:25;;;;;;;0.30;0.30;;;;;;;5.21;74.38;95189.66;5010722;28;20180;-71
2024/01/25 02:38:50;;;;;;;0.40;0.40;;;;;;;5.13;74.45;95193.09;5010741;28;20176;-71
2024/01/25 02:41:16;;;;;;;0.40;0.40;;;;;;;5.21;74.39;95192.25;5010610;28;20200;-71
2024/01/25 02:43:41;;;;;;;0.30;0.30;;;;;;;5.12;74.34;95193.25;5010765;28;20184;-71
2024/01/25 02:46:07;;;;;;;0.40;0.40;;;;;;;5.14;74.37;95170.44;5010974;28;20935;-69
2024/01/25 02:48:33;;;;;;;0.50;0.50;;;;;;;5.16;73.92;95166.69;5010668;28;20255;-69
2024/01/25 02:50:59;;;;;;;0.33;0.33;;;;;;;5.24;73.70;95155.41;5010402;28;20705;-69
2024/01/25 02:53:24;;;;;;;0.40;0.40;;;;;;;5.36;73.55;95167.09;5010509;28;20176;-69
2024/01/25 02:55:50;;;;;;;0.40;0.40;;;;;;;5.52;72.99;95169.59;5010438;28;20184;-69
2024/01/25 02:58:15;;;;;;;0.50;0.50;;;;;;;5.51;72.79;95167.16;5010443;28;20208;-69
2024/01/25 03:00:41;;;;;;;0.40;0.40;;;;;;;5.42;72.90;95147.31;5010541;28;20592;-69
2024/01/25 03:03:06;;;;;;;0.40;0.40;;;;;;;5.61;73.06;95171.19;5010339;28;20168;-69
2024/01/25 03:05:32;;;;;;;0.30;0.30;;;;;;;5.65;73.67;95166.41;5010472;28;20256;-69
2024/01/25 03:07:57;;;;;;;0.70;0.70;;;;;;;5.66;75.04;95136.72;5010526;28;20173;-69
2024/01/25 03:10:23;;;;;;;0.40;0.40;;;;;;;6.06;76.12;95165.19;5010515;28;20588;-70
2024/01/25 03:12:49;;;;;;;0.30;0.30;;;;;;;6.29;76.32;95161.75;5010512;28;20161;-69
2024/01/25 03:15:15;;;;;;;0.37;0.37;;;;;;;6.35;76.36;95138.31;5013087;28;20177;-69
2024/01/25 03:17:40;;;;;;;0.40;0.40;;;;;;;6.77;75.87;95149.97;5012995;28;20211;-69
2024/01/25 03:20:06;;;;;;;0.83;0.83;;;;;;;6.97;74.80;95161.53;5014210;28;20244;-69
2024/01/25 03:22:32;;;;;;;0.77;0.77;;;;;;;7.12;73.85;95153.69;5014118;28;20201;-70
2024/01/25 03:24:57;;;;;;;0.40;0.40;;;;;;;7.14;73.70;95154.31;5014154;28;20180;-69
2024/01/25 03:27:23;;;;;;;0.40;0.40;;;;;;;7.24;73.52;95154.03;5014084;28;20172;-69
2024/01/25 03:29:48;;;;;;;0.50;0.50;;;;;;;7.28;73.25;95145.63;5013956;28;20164;-70
2024/01/25 03:32:13;;;;;;;0.40;0.40;;;;;;;7.32;73.07;95154.75;5013961;28;20195;-70
2024/01/25 03:34:39;;;;;;;0.30;0.30;;;;;;;7.35;73.06;95161.44;5013835;28;20176;-69
2024/01/25 03:37:05;;;;;;;0.40;0.40;;;;;;;7.39;72.70;95157.44;5013822;28;20177;-69
2024/01/25 03:39:30;;;;;;;0.30;0.30;;;;;;;7.42;72.89;95144.78;5028495;28;20183;-70
2024/01/25 03:41:56;;;;;;;0.40;0.40;;;;;;;7.40;72.19;95138.09;5033434;28;20607;-70
2024/01/25 03:44:21;;;;;;;0.50;0.50;;;;;;;7.46;72.14;95129.50;5033526;28;20167;-70
2024/01/25 03:46:47;;;;;;;0.50;0.50;;;;;;;7.34;71.49;95116.09;5033489;28;20237;-70
2024/01/25 03:49:12;;;;;;;0.50;0.50;;;;;;;7.45;71.37;95152.25;5033395;28;20171;-70
2024/01/25 03:51:38;;;;;;;0.37;0.37;;;;;;;7.40;71.28;95143.34;5033277;28;20214;-69
2024/01/25 03:54:03;;;;;;;0.50;0.50;;;;;;;7.23;71.31;95105.28;5033301;28;20173;-69
2024/01/25 03:56:29;;;;;;;0.40;0.40;;;;;;;7.36;71.07;95121.13;5033330;28;20175;-69
2024/01/25 03:58:54;;;;;;;0.50;0.50;;;;;;;7.38;70.66;95100.81;5033576;28;20237;-69
2024/01/25 04:01:20;;;;;;;0.30;0.30;;;;;;;7.35;70.69;95114.31;5033041;28;20271;-70
2024/01/25 04:03:45;;;;;;;0.40;0.40;;;;;;;7.30;70.68;95104.38;5033074;28;20172;-70
2024/01/25 04:06:11;;;;;;;0.40;0.40;;;;;;;7.24;70.95;95101.66;5033043;28;20175;-69
2024/01/25 04:08:36;;;;;;;0.40;0.40;;;;;;;7.27;70.88;95120.44;5032977;28;20172;-69
2024/01/25 04:11:02;;;;;;;4.70;2.20;;;;;;;7.28;71.23;95108.16;5032987;28;20163;-69
2024/01/25 04:13:27;;;;;;;0.30;0.30;;;;;;;7.24;70.92;95084.16;5032932;28;20506;-69
2024/01/25 04:15:53;;;;;;;0.40;0.40;;;;;;;7.41;70.88;95108.31;5032806;28;20236;-70
2024/01/25 04:18:18;;;;;;;0.43;0.43;;;;;;;7.44;70.78;95111.34;5032815;28;20172;-70
2024/01/25 04:20:44;;;;;;;0.40;0.40;;;;;;;7.41;70.45;95106.50;5032577;28;20703;-70
2024/01/25 04:23:09;;;;;;;0.37;0.37;;;;;;;7.41;70.78;95109.13;5032691;28;20677;-70
2024/01/25 04:25:35;;;;;;;0.40;0.40;;;;;;;7.46;69.96;95096.28;5031800;28;20176;-70
2024/01/25 04:28:01;;;;;;;0.40;0.40;;;;;;;7.47;70.04;95097.91;5032626;28;20172;-69
2024/01/25 04:30:27;;;;;;;0.40;0.40;;;;;;;7.41;69.82;95108.31;5032503;28;20560;-70
2024/01/25 04:32:52;;;;;;;0.40;0.40;;;;;;;7.35;69.98;95107.22;5032710;28;20180;-70
2024/01/25 04:35:18;;;;;;;0.40;0.40;;;;;;;7.37;69.51;95117.53;5032379;28;20188;-69
2024/01/25 04:37:43;;;;;;;0.40;0.40;;;;;;;7.30;69.44;95127.13;5032295;28;20172;-70
2024/01/25 04:40:09;;;;;;;0.43;0.43;;;;;;;7.24;69.31;95139.13;5029656;28;20241;-70
2024/01/25 04:42:35;;;;;;;0.40;0.40;;;;;;;7.08;69.87;95140.16;5032203;28;20199;-70
2024/01/25 04:45:00;;;;;;;0.40;0.40;;;;;;;6.92;69.86;95158.63;5032279;28;20250;-70
2024/01/25 04:47:26;;;;;;;0.40;0.40;;;;;;;6.73;70.44;95148.72;5032163;28;20574;-70
2024/01/25 04:49:51;;;;;;;1.43;1.33;;;;;;;6.52;70.46;95159.06;5032146;28;20254;-70
2024/01/25 04:52:17;;;;;;;2.63;2.53;;;;;;;6.40;70.73;95162.09;5032164;28;20357;-70
2024/01/25 04:54:42;;;;;;;0.50;0.50;;;;;;;6.13;71.35;95154.84;5032091;28;20183;-70
2024/01/25 04:57:08;;;;;;;1.20;1.20;;;;;;;5.94;72.26;95157.94;5031809;28;20184;-70
2024/01/25 04:59:33;;;;;;;0.40;0.40;;;;;;;5.92;72.11;95165.94;5032022;28;20182;-70
2024/01/25 05:01:59;;;;;;;0.60;0.60;;;;;;;5.71;72.43;95123.94;5032048;28;20578;-70
2024/01/25 05:04:25;;;;;;;0.40;0.40;;;;;;;5.86;72.38;95142.28;5032133;28;20215;-68
2024/01/25 05:06:50;;;;;;;0.40;0.40;;;;;;;6.08;72.23;95167.63;5032168;28;20207;-72
2024/01/25 05:09:16;;;;;;;0.40;0.40;;;;;;;6.09;71.62;95169.25;5032589;28;20938;-71
2024/01/25 05:11:41;;;;;;;0.60;0.60;;;;;;;6.07;71.52;95177.25;5031905;28;20225;-69
2024/01/25 05:14:07;;;;;;;0.40;0.40;;;;;;;6.14;71.38;95182.59;5031783;28;20180;-68
2024/01/25 05:16:33;;;;;;;0.40;0.40;;;;;;;6.02;71.49;95173.56;5031683;28;20180;-68
2024/01/25 05:18:58;;;;;;;0.47;0.47;;;;;;;6.03;71.54;95196.91;5031642;28;20259;-68
2024/01/25 05:21:24;;;;;;;4.73;3.57;;;;;;;5.94;71.71;95203.16;5031375;28;20223;-68
2024/01/25 05:23:49;;;;;;;0.50;0.50;;;;;;;6.07;71.61;95215.63;5031628;28;20582;-68
2024/01/25 05:26:15;;;;;;;0.70;0.70;;;;;;;6.16;71.35;95211.16;5031609;28;20167;-68
2024/01/25 05:28:41;;;;;;;0.50;0.50;;;;;;;6.29;71.40;95201.75;5031372;28;20184;-68
2024/01/25 05:31:12;;;;;;;0.40;0.40;;;;;;;6.30;70.71;95210.44;5031406;28;20175;-68
2024/01/25 05:33:39;;;;;;;0.40;0.40;;;;;;;6.22;70.65;95187.78;5031382;28;20179;-68
2024/01/25 05:36:05;;;;;;;0.40;0.40;;;;;;;6.46;69.88;95214.69;5031230;28;20644;-68
2024/01/25 05:38:32;;;;;;;0.40;0.40;;;;;;;6.49;69.87;95217.75;5030386;28;20573;-68
2024/01/25 05:40:57;;;;;;;21.33;5.70;;;;;;;6.43;69.32;95211.44;5031076;28;20172;-69
2024/01/25 05:43:23;;;;;;;0.40;0.40;;;;;;;6.38;69.84;95207.75;5031132;28;20537;-69
2024/01/25 05:45:49;;;;;;;0.40;0.40;;;;;;;6.45;69.60;95211.28;5031084;28;20210;-69
2024/01/25 05:48:15;;;;;;;0.40;0.40;;;;;;;6.47;69.42;95216.34;5031080;28;20183;-71
2024/01/25 05:50:40;;;;;;;0.40;0.40;;;;;;;6.48;69.15;95215.34;5030995;28;20180;-69
2024/01/25 05:53:06;;;;;;;0.53;0.53;;;;;;;6.65;69.43;95214.22;5031073;28;20168;-69
2024/01/25 05:55:31;;;;;;;0.40;0.40;;;;;;;6.79;69.09;95229.09;5030995;28;20180;-69
2024/01/25 05:57:57;;;;;;;0.83;0.83;;;;;;;6.92;68.31;95241.59;5030745;28;20502;-69
2024/01/25 06:00:23;;;;;;;0.43;0.43;;;;;;;6.93;68.14;95241.38;5030685;28;20192;-69
2024/01/25 06:02:48;;;;;;;0.80;0.80;;;;;;;6.92;68.97;95247.59;5030449;28;20218;-69
2024/01/25 06:05:14;;;;;;;0.50;0.50;;;;;;;6.88;68.25;95243.75;5030541;28;20175;-69
2024/01/25 06:07:40;;;;;;;0.50;0.50;;;;;;;6.85;68.51;95246.69;5029773;28;20176;-69
2024/01/25 06:10:06;;;;;;;4.23;2.70;;;;;;;6.57;69.14;95241.25;5029621;28;20206;-69
2024/01/25 06:12:32;;;;;;;0.50;0.50;;;;;;;6.55;69.38;95245.84;5029707;28;20171;-69
2024/01/25 06:14:57;;;;;;;2.30;2.10;;;;;;;6.56;69.40;95239.63;5029746;28;20179;-69
2024/01/25 06:17:22;;;;;;;0.40;0.40;;;;;;;6.52;69.53;95242.75;5030007;28;20606;-69
2024/01/25 06:19:48;;;;;;;0.33;0.33;;;;;;;6.51;69.69;95241.94;5030018;28;20176;-69
2024/01/25 06:22:13;;;;;;;0.40;0.40;;;;;;;6.54;70.01;95256.47;5030541;28;20207;-69
2024/01/25 06:24:39;;;;;;;7.30;2.97;;;;;;;6.24;69.89;95251.13;5030456;28;20200;-69
2024/01/25 06:27:04;;;;;;;0.50;0.50;;;;;;;6.35;70.38;95257.75;5030535;28;20178;-69
2024/01/25 06:29:30;;;;;;;0.40;0.40;;;;;;;6.33;70.81;95255.31;5030414;28;20179;-69
2024/01/25 06:31:55;;;;;;;1.10;1.10;;;;;;;6.29;71.07;95256.66;5012779;28;20659;-69
2024/01/25 06:34:21;;;;;;;0.50;0.50;;;;;;;6.18;71.25;95251.84;5030344;28;20238;-68
2024/01/25 06:36:46;;;;;;;0.70;0.70;;;;;;;6.29;71.06;95267.13;5030557;28;20182;-69
2024/01/25 06:39:11;;;;;;;7.00;6.57;;;;;;;6.34;71.03;95277.84;5030384;28;20190;-69
2024/01/25 06:41:37;;;;;;;0.97;0.97;;;;;;;6.29;70.59;95267.13;5030338;28;20664;-69
2024/01/25 06:44:02;;;;;;;0.40;0.40;;;;;;;6.29;70.59;95272.34;5030202;28;20177;-69
2024/01/25 06:46:28;;;;;;;0.40;0.40;;;;;;;6.14;70.96;95240.09;5030371;28;20267;-69
2024/01/25 06:48:54;;;;;;;0.50;0.50;;;;;;;6.37;70.97;95264.44;5030840;28;20250;-69
2024/01/25 06:51:19;;;;;;;0.50;0.50;;;;;;;6.40;71.00;95276.34;5034322;28;20170;-70
2024/01/25 06:53:45;;;;;;;0.40;0.40;;;;;;;6.33;71.24;95242.25;5034388;28;20179;-69
2024/01/25 06:56:10;;;;;;;0.40;0.40;;;;;;;6.61;70.59;95257.38;5034202;28;20186;-69
2024/01/25 06:58:36;;;;;;;0.47;0.47;;;;;;;6.76;69.95;95273.94;5034228;28;20229;-69
2024/01/25 07:01:01;;;;;;;0.40;0.40;;;;;;;6.83;69.67;95287.94;5033975;28;20259;-69
2024/01/25 07:03:27;;;;;;;0.53;0.53;;;;;;;6.93;69.43;95291.09;5033973;28;20571;-68
2024/01/25 07:05:52;;;;;;;4.50;2.43;;;;;;;6.80;68.93;95262.13;5034021;28;20176;-68
2024/01/25 07:08:18;;;;;;;0.40;0.40;;;;;;;6.98;68.82;95278.31;5034105;28;20229;-68
2024/01/25 07:10:45;;;;;;;0.40;0.40;;;;;;;7.18;68.80;95284.66;5034127;28;20648;-68
2024/01/25 07:13:10;;;;;;;0.50;0.50;;;;;;;7.19;67.97;95248.81;5034243;28;21009;-68
2024/01/25 07:15:36;;;;;;;0.40;0.40;;;;;;;7.44;67.82;95265.06;5033658;28;20313;-68
2024/01/25 07:18:01;;;;;;;0.50;0.50;;;;;;;7.77;67.03;95249.78;5033706;28;20633;-68
2024/01/25 07:20:27;;;;;;;0.40;0.40;;;;;;;7.78;65.20;95231.25;5033725;28;20231;-68
2024/01/25 07:22:53;;;;;;;3.17;3.07;;;;;;;7.96;65.21;95255.25;5033605;28;20587;-68
2024/01/25 07:25:18;;;;;;;0.40;0.40;;;;;;;7.93;65.10;95260.88;5033559;28;20179;-68
2024/01/25 07:27:45;;;;;;;0.40;0.40;;;;;;;7.95;64.89;95245.78;5033568;28;20198;-68
2024/01/25 07:30:12;;;;;;;0.40;0.40;;;;;;;8.02;64.68;95250.28;5033454;28;20679;-68
2024/01/25 07:32:38;;;;;;;0.50;0.50;;;;;;;7.66;64.75;95221.44;5033508;28;20164;-69
2024/01/25 07:35:04;;;;;;;0.63;0.63;;;;;;;7.76;64.90;95253.41;5033576;28;20649;-69
2024/01/25 07:37:30;;;;;;;0.50;0.50;;;;;;;7.87;64.99;95253.72;5033564;28;20217;-69
2024/01/25 07:39:55;;;;;;;0.60;0.60;;;;;;;7.89;64.99;95238.63;5033113;28;20762;-69
2024/01/25 07:42:21;;;;;;;0.70;0.70;;;;;;;7.87;64.69;95239.84;5033364;28;20204;-69
2024/01/25 07:44:46;;;;;;;1.43;1.43;;;;;;;7.88;64.28;95246.66;5033286;28;20179;-68
2024/01/25 07:47:13;;;;;;;0.40;0.40;;;;;;;7.93;64.75;95255.63;5033259;28;20210;-68
2024/01/25 07:49:40;;;;;;;0.40;0.40;;;;;;;8.05;64.44;95255.13;5033098;28;20182;-68
2024/01/25 07:52:05;;;;;;;2.03;1.20;;;;;;;8.09;64.20;95261.63;5033181;28;20175;-67
2024/01/25 07:54:31;;;;;;;0.70;0.70;;;;;;;8.13;63.18;95255.81;5031665;28;20563;-68
2024/01/25 07:56:56;;;;;;;0.50;0.50;;;;;;;8.53;63.15;95275.44;5032976;28;20176;-68
2024/01/25 07:59:22;;;;;;;0.40;0.40;;;;;;;8.77;61.44;95281.28;5033222;28;20187;-68
2024/01/25 08:01:48;;;;;;;2.27;1.23;;;;;;;9.20;59.35;95277.59;5031694;28;20199;-68
2024/01/25 08:04:13;;;;;;;0.57;0.57;;;;;;;9.41;58.37;95292.50;5032534;28;20168;-68
2024/01/25 08:06:39;;;;;;;0.50;0.50;;;;;;;9.12;59.08;95266.44;5031593;28;20179;-69
2024/01/25 08:09:04;;;;;;;0.40;0.40;;;;;;;9.19;59.98;95281.22;5025688;28;20202;-71
2024/01/25 08:11:30;;;;;;;0.43;0.43;;;;;;;9.01;59.18;95265.94;5031534;28;20258;-70
2024/01/25 08:13:55;;;;;;;0.30;0.30;;;;;;;9.13;59.43;95287.25;5031778;28;20160;-70
2024/01/25 08:16:21;;;;;;;0.47;0.47;;;;;;;9.09;59.99;95288.63;5030767;28;20184;-70
2024/01/25 08:18:49;;;;;;;0.50;0.50;;;;;;;9.14;60.14;95294.13;5031429;28;20190;-70
2024/01/25 08:21:16;;;;;;;2.50;2.30;;;;;;;9.07;59.62;95274.88;5031173;28;20235;-71
2024/01/25 08:23:41;;;;;;;0.60;0.60;;;;;;;9.01;58.83;95279.06;5012977;28;20168;-69
2024/01/25 08:26:12;;;;;;;0.50;0.50;;;;;;;9.12;59.66;95284.81;5031099;28;20629;-69
2024/01/25 08:28:39;;;;;;;2.03;1.63;;;;;;;9.13;59.14;95284.63;5031275;28;20186;-69
2024/01/25 08:31:05;;;;;;;3.90;3.17;;;;;;;9.14;58.06;95281.00;5030708;28;20175;-70
2024/01/25 08:33:30;;;;;;;0.47;0.47;;;;;;;9.18;57.35;95284.03;5031260;28;20245;-70
2024/01/25 08:35:56;;;;;;;0.90;0.90;;;;;;;8.96;57.28;95273.59;5031384;28;20171;-69
2024/01/25 08:38:22;;;;;;;0.87;0.87;;;;;;;8.85;59.06;95274.09;5030586;28;20649;-69
2024/01/25 08:40:47;;;;;;;0.40;0.40;;;;;;;8.87;59.03;95256.34;5031414;28;20256;-70
2024/01/25 08:43:13;;;;;;;0.50;0.50;;;;;;;8.95;57.78;95258.84;5031303;28;20188;-69
2024/01/25 08:45:38;;;;;;;0.50;0.50;;;;;;;9.08;58.89;95287.81;5030717;28;20685;-70
2024/01/25 08:48:04;;;;;;;1.80;0.97;;;;;;;8.99;59.13;95291.56;5031154;28;20262;-69
2024/01/25 08:50:30;;;;;;;0.60;0.50;;;;;;;9.00;58.65;95287.13;5031340;28;20203;-70
2024/01/25 08:52:55;;;;;;;0.50;0.50;;;;;;;8.96;58.56;95296.41;5031110;28;20652;-69
2024/01/25 08:55:21;;;;;;;0.40;0.40;;;;;;;9.11;58.06;95298.94;5031400;28;20180;-69
2024/01/25 08:57:48;;;;;;;1.00;1.00;;;;;;;9.21;57.48;95307.31;5013337;28;20176;-68
2024/01/25 09:00:15;;;;;;;0.40;0.40;;;;;;;9.24;57.23;95297.25;5030199;28;20696;-68
2024/01/25 09:02:40;;;;;;;0.57;0.57;;;;;;;9.55;57.25;95301.25;5013185;28;20214;-68
2024/01/25 09:05:06;;;;;;;0.50;0.50;;;;;;;9.71;56.14;95309.66;5030746;28;20187;-68
2024/01/25 09:07:32;;;;;;;0.93;0.93;;;;;;;9.72;56.25;95306.00;5030278;28;20176;-69
2024/01/25 09:09:59;;;;;;;0.40;0.40;;;;;;;9.74;56.19;95311.09;5037154;28;20175;-69
2024/01/25 09:12:24;;;;;;;0.50;0.50;;;;;;;9.67;56.34;95308.44;5030405;28;20261;-68
2024/01/25 09:14:50;;;;;;;0.40;0.40;;;;;;;9.66;55.92;95304.16;5030066;28;20623;-68
2024/01/25 09:17:21;;;;;;;0.47;0.47;;;;;;;9.66;56.21;95306.00;5012878;28;20183;-69
2024/01/25 09:19:50;;;;;;;0.40;0.40;;;;;;;9.38;55.93;95296.31;5033276;28;20683;-68
2024/01/25 09:22:17;;;;;;;0.40;0.40;;;;;;;9.30;57.49;95295.66;5019009;28;20210;-68
2024/01/25 09:24:43;;;;;;;0.40;0.40;;;;;;;9.40;57.82;95301.38;5038119;28;20175;-68
2024/01/25 09:27:09;;;;;;;0.40;0.40;;;;;;;9.34;58.12;95286.41;5041514;28;20263;-68
2024/01/25 09:29:34;;;;;;;0.40;0.40;;;;;;;9.39;57.62;95281.38;5032834;28;20250;-69
2024/01/25 09:32:00;;;;;;;0.40;0.40;;;;;;;9.35;57.59;95286.19;5040466;28;20182;-68
2024/01/25 09:34:26;;;;;;;0.40;0.40;;;;;;;9.42;57.57;95281.00;5038340;28;20656;-69
2024/01/25 09:36:51;;;;;;;0.40;0.40;;;;;;;9.51;57.61;95286.91;5032210;28;20176;-68
2024/01/25 09:39:17;;;;;;;0.50;0.50;;;;;;;9.63;57.68;95282.72;5030042;28;20183;-69
2024/01/25 09:41:43;;;;;;;0.40;0.40;;;;;;;9.49;57.76;95267.88;5032427;28;20206;-69
2024/01/25 09:44:09;;;;;;;0.40;0.40;;;;;;;9.48;57.36;95271.50;5042938;28;20175;-70
2024/01/25 09:46:35;;;;;;;0.40;0.40;;;;;;;9.52;57.13;95268.28;5033140;28;20202;-70
2024/01/25 09:49:01;;;;;;;0.60;0.60;;;;;;;9.48;56.79;95259.19;5038728;28;20253;-69
2024/01/25 09:51:34;;;;;;;0.40;0.40;;;;;;;9.48;57.83;95248.66;5032791;28;20653;-69
2024/01/25 09:54:00;;;;;;;0.40;0.40;;;;;;;9.49;57.96;95245.03;5041612;28;20182;-70
2024/01/25 09:56:29;;;;;;;0.50;0.50;;;;;;;9.47;58.21;95239.16;5029522;28;20226;-70
2024/01/25 09:58:55;;;;;;;0.40;0.40;;;;;;;9.32;58.97;95225.34;5029772;28;20260;-69
2024/01/25 10:01:21;;;;;;;0.30;0.30;;;;;;;9.48;57.74;95245.22;5029040;28;20184;-70
2024/01/25 10:03:47;;;;;;;0.57;0.57;;;;;;;9.48;57.70;95240.78;5029807;28;20179;-70
2024/01/25 10:06:14;;;;;;;0.40;0.40;;;;;;;9.35;57.65;95238.88;5012764;28;20206;-69
2024/01/25 10:08:39;;;;;;;0.40;0.40;;;;;;;9.28;58.55;95227.53;5030401;28;20172;-69
2024/01/25 10:11:05;;;;;;;0.50;0.50;;;;;;;9.39;58.33;95223.56;5012333;28;20179;-68
2024/01/25 10:13:31;;;;;;;1.00;1.00;;;;;;;9.32;57.81;95220.91;5011896;28;20569;-69
2024/01/25 10:15:57;;;;;;;0.40;0.40;;;;;;;9.32;57.74;95214.84;5030216;28;20182;-69
2024/01/25 10:18:25;;;;;;;0.40;0.40;;;;;;;9.38;58.98;95190.41;5030452;28;20168;-69
2024/01/25 10:20:53;;;;;;;0.40;0.40;;;;;;;9.79;61.74;95211.41;5030301;28;20231;-69
2024/01/25 10:23:18;;;;;;;0.60;0.60;;;;;;;9.97;60.55;95211.66;5030058;28;20664;-69
2024/01/25 10:25:44;;;;;;;0.40;0.40;;;;;;;10.37;61.49;95215.25;5030127;28;20186;-69
2024/01/25 10:28:11;;;;;;;1.90;0.83;;;;;;;10.07;57.99;95219.19;5030329;28;20534;-70
2024/01/25 10:30:36;;;;;;;0.60;0.60;;;;;;;10.40;58.39;95214.00;5029887;28;20625;-68
2024/01/25 10:33:04;;;;;;;0.40;0.40;;;;;;;10.73;56.55;95221.91;5030402;28;20178;-69
2024/01/25 10:35:31;;;;;;;0.40;0.40;;;;;;;11.04;57.38;95216.06;5030208;28;20168;-67
2024/01/25 10:37:57;;;;;;;0.57;0.57;;;;;;;11.33;54.99;95219.03;5030139;28;20641;-69
2024/01/25 10:40:23;;;;;;;0.50;0.50;;;;;;;11.26;54.51;95217.41;5030412;28;20179;-68
2024/01/25 10:42:49;;;;;;;0.40;0.40;;;;;;;11.14;53.46;95206.72;5029953;28;20220;-69
2024/01/25 10:45:14;;;;;;;0.40;0.40;;;;;;;10.66;54.10;95213.22;5028226;28;20179;-70
2024/01/25 10:47:44;;;;;;;0.40;0.40;;;;;;;10.42;55.92;95189.13;5031520;28;20180;-69
2024/01/25 10:50:13;;;;;;;0.30;0.30;;;;;;;10.57;56.06;95191.53;5030053;28;20171;-69
2024/01/25 10:52:42;;;;;;;0.50;0.50;;;;;;;10.51;55.24;95187.91;5029908;28;20679;-68
2024/01/25 10:55:08;;;;;;;0.30;0.30;;;;;;;10.75;56.29;95194.38;5029781;28;20186;-68
2024/01/25 10:57:52;;;;;;;0.53;0.53;;;;;;;10.98;56.58;95178.19;5029769;28;20176;-69
2024/01/25 11:00:18;;;;;;;0.40;0.40;;;;;;;11.08;54.06;95185.63;5029948;28;20529;-69
2024/01/25 11:02:45;;;;;;;0.40;0.40;;;;;;;11.10;53.52;95184.41;5029745;28;20207;-69
2024/01/25 11:05:16;;;;;;;0.30;0.30;;;;;;;10.92;54.69;95166.63;5029748;28;20164;-69
2024/01/25 11:08:00;;;;;;;0.30;0.30;;;;;;;10.66;54.40;95165.81;5029764;28;20221;-69
2024/01/25 11:10:26;;;;;;;0.87;0.87;;;;;;;10.61;55.17;95163.81;5012061;28;20164;-69
2024/01/25 11:12:56;;;;;;;0.40;0.40;;;;;;;10.49;54.72;95158.34;5012050;28;20180;-68
2024/01/25 11:15:35;;;;;;;0.47;0.47;;;;;;;10.34;54.79;95141.94;5029790;28;20172;-68
2024/01/25 11:18:02;;;;;;;0.40;0.40;;;;;;;10.29;54.66;95140.94;5029795;28;20179;-68
2024/01/25 11:20:29;;;;;;;0.60;0.60;;;;;;;10.24;55.93;95136.28;5029736;28;20228;-68
2024/01/25 11:23:01;;;;;;;10.03;2.60;;;;;;;9.90;55.33;95118.81;5029475;28;20688;-68
2024/01/25 11:25:28;;;;;;;0.90;0.90;;;;;;;10.10;55.38;95130.16;5029691;28;20713;-68
2024/01/25 11:27:55;;;;;;;0.30;0.30;;;;;;;9.84;55.77;95106.47;5029646;28;20171;-69
2024/01/25 11:30:20;;;;;;;0.50;0.50;;;;;;;9.87;56.35;95111.31;5011942;28;20183;-68
2024/01/25 11:32:50;;;;;;;0.40;0.40;;;;;;;9.99;55.92;95125.50;5041416;28;20173;-68
2024/01/25 11:35:20;;;;;;;0.40;0.40;;;;;;;9.87;56.13;95123.63;5050465;28;20178;-68